Time;durP1;ratioP1;P1;durP2;ratioP2;P2;SDS_P1;SDS_P2;PMS_P1;PMS_P2;Temp;Humidity;BMP_temperature;BMP_pressure;BME280_temperature;BME280_humidity;BME280_pressure;Samples;Min_cycle;Max_cycle;Signal;HPM_P1;HPM_P2
2023/05/09 00:02:09;;;;;;;9.32;3.60;;;13.40;99.90;;;;;;5149310;27;20030;-85
2023/05/09 00:04:34;;;;;;;10.45;2.90;;;13.40;99.90;;;;;;5113003;27;20051;-85
2023/05/09 00:07:00;;;;;;;3.08;2.53;;;13.50;99.90;;;;;;5106558;28;20020;-85
2023/05/09 00:09:26;;;;;;;4.05;2.20;;;13.50;99.90;;;;;;5114373;28;20023;-87
2023/05/09 00:11:51;;;;;;;7.82;2.05;;;13.50;99.90;;;;;;5117209;28;20580;-84
2023/05/09 00:14:17;;;;;;;4.40;1.60;;;13.40;99.90;;;;;;5120082;28;20019;-84
2023/05/09 00:16:44;;;;;;;5.68;1.77;;;13.40;99.90;;;;;;5113000;27;20051;-87
2023/05/09 00:19:10;;;;;;;4.13;1.80;;;13.40;99.90;;;;;;5135039;27;20027;-89
2023/05/09 00:21:35;;;;;;;4.57;2.00;;;13.30;99.90;;;;;;5113518;27;20030;-88
2023/05/09 00:24:01;;;;;;;5.15;1.98;;;13.30;99.90;;;;;;5113399;28;20110;-89
2023/05/09 00:26:27;;;;;;;4.47;2.17;;;13.30;99.90;;;;;;5112193;27;20581;-88
2023/05/09 00:28:52;;;;;;;6.78;2.45;;;13.30;99.90;;;;;;5132171;27;20494;-88
2023/05/09 00:31:19;;;;;;;4.28;2.00;;;13.30;99.90;;;;;;5116281;27;20139;-85
2023/05/09 00:33:44;;;;;;;8.77;2.58;;;13.30;99.90;;;;;;5132726;27;20431;-88
2023/05/09 00:36:10;;;;;;;7.07;2.88;;;13.30;99.90;;;;;;5134416;27;20038;-88
2023/05/09 00:38:36;;;;;;;7.68;2.15;;;13.30;99.90;;;;;;5132831;27;20045;-87
2023/05/09 00:41:01;;;;;;;6.68;2.40;;;13.30;99.90;;;;;;5127990;27;20058;-87
2023/05/09 00:43:27;;;;;;;7.53;2.60;;;13.20;99.90;;;;;;5131162;27;20065;-88
2023/05/09 00:45:52;;;;;;;5.38;2.63;;;13.20;99.90;;;;;;5112409;28;20046;-88
2023/05/09 00:48:18;;;;;;;6.88;2.80;;;13.20;99.90;;;;;;5114309;28;20039;-86
2023/05/09 00:50:45;;;;;;;4.13;2.88;;;13.20;99.90;;;;;;5126755;27;20039;-83
2023/05/09 00:53:10;;;;;;;7.75;3.38;;;13.20;99.90;;;;;;5114345;27;20154;-87
2023/05/09 00:55:36;;;;;;;6.47;3.22;;;13.20;99.90;;;;;;5121273;27;20031;-88
2023/05/09 00:58:02;;;;;;;6.70;3.53;;;13.20;99.90;;;;;;5134527;27;20034;-91
2023/05/09 01:00:28;;;;;;;6.38;3.08;;;13.10;99.90;;;;;;5122121;27;20053;-85
2023/05/09 01:02:55;;;;;;;5.38;2.95;;;13.20;99.90;;;;;;5134166;27;20095;-87
2023/05/09 01:05:26;;;;;;;6.18;3.22;;;13.10;99.90;;;;;;5134812;27;20744;-87
2023/05/09 01:08:04;;;;;;;5.45;3.15;;;13.10;99.90;;;;;;5151477;27;20034;-85
2023/05/09 01:10:52;;;;;;;8.27;3.38;;;13.10;99.90;;;;;;5122112;27;20031;-91
2023/05/09 01:13:30;;;;;;;4.25;2.75;;;13.10;99.90;;;;;;5113162;28;20032;-91
2023/05/09 01:16:16;;;;;;;8.55;3.05;;;13.00;99.90;;;;;;5117799;27;20053;-85
2023/05/09 01:18:44;;;;;;;7.32;3.03;;;13.10;99.90;;;;;;5126495;27;20114;-89
2023/05/09 01:21:20;;;;;;;8.85;3.00;;;13.00;99.90;;;;;;5132469;27;20041;-85
2023/05/09 01:23:58;;;;;;;6.25;2.83;;;13.10;99.90;;;;;;5132483;27;20026;-90
2023/05/09 01:26:44;;;;;;;5.88;2.90;;;13.10;99.90;;;;;;5131085;27;20038;-87
2023/05/09 01:29:21;;;;;;;7.65;2.90;;;13.10;99.90;;;;;;5130291;27;20075;-88
2023/05/09 01:31:48;;;;;;;6.13;2.05;;;13.10;99.90;;;;;;5152706;27;20034;-82
2023/05/09 01:34:15;;;;;;;4.55;2.20;;;13.20;99.90;;;;;;5126679;27;20034;-89
2023/05/09 01:36:42;;;;;;;5.10;1.98;;;13.20;99.90;;;;;;5129980;27;20482;-89
2023/05/09 01:39:11;;;;;;;8.60;1.98;;;13.10;99.90;;;;;;5130558;27;20020;-90
2023/05/09 01:41:37;;;;;;;4.75;1.55;;;13.20;99.90;;;;;;5115098;27;20108;-84
2023/05/09 01:44:08;;;;;;;7.90;1.60;;;13.10;99.90;;;;;;5112998;27;20051;-88
2023/05/09 01:46:36;;;;;;;4.07;1.40;;;13.10;99.90;;;;;;5124580;27;20028;-88
2023/05/09 01:49:02;;;;;;;1.50;1.00;;;13.10;99.90;;;;;;5126604;27;20047;-88
2023/05/09 01:51:30;;;;;;;1.88;1.00;;;13.10;99.90;;;;;;5110056;27;20050;-89
2023/05/09 01:53:57;;;;;;;2.90;1.10;;;13.10;99.90;;;;;;5103732;28;20024;-76
2023/05/09 01:56:24;;;;;;;2.35;1.00;;;13.00;99.90;;;;;;5104028;27;20195;-77
2023/05/09 01:58:51;;;;;;;4.15;1.30;;;13.00;99.90;;;;;;5118985;27;20031;-76
2023/05/09 02:01:18;;;;;;;2.45;1.63;;;13.00;99.90;;;;;;5121961;27;20096;-76
2023/05/09 02:03:46;;;;;;;3.30;1.75;;;13.00;99.90;;;;;;5110101;27;20039;-76
2023/05/09 02:06:14;;;;;;;3.97;1.80;;;13.00;99.90;;;;;;5103830;27;20716;-75
2023/05/09 02:08:41;;;;;;;3.72;2.25;;;13.00;99.90;;;;;;5100999;27;20036;-77
2023/05/09 02:11:07;;;;;;;7.85;3.40;;;13.00;99.90;;;;;;5105276;27;20049;-76
2023/05/09 02:13:32;;;;;;;8.95;3.50;;;13.00;99.90;;;;;;5113221;27;20023;-76
2023/05/09 02:15:59;;;;;;;12.38;4.57;;;13.00;99.90;;;;;;5108975;27;20032;-75
2023/05/09 02:18:26;;;;;;;10.05;4.70;;;13.00;99.90;;;;;;5103395;27;20112;-76
2023/05/09 02:20:52;;;;;;;9.35;4.43;;;13.00;99.90;;;;;;5111838;27;20170;-91
2023/05/09 02:23:18;;;;;;;9.85;4.35;;;13.00;99.90;;;;;;5104297;27;20477;-76
2023/05/09 02:25:45;;;;;;;10.50;5.18;;;13.00;99.90;;;;;;5117726;27;20090;-91
2023/05/09 02:28:12;;;;;;;14.07;4.70;;;13.00;99.90;;;;;;5145739;27;20022;-89
2023/05/09 02:30:43;;;;;;;10.45;4.72;;;13.00;99.90;;;;;;5135147;27;20139;-90
2023/05/09 02:33:11;;;;;;;11.43;4.65;;;13.00;99.90;;;;;;5121296;27;20386;-92
2023/05/09 02:35:38;;;;;;;9.32;4.75;;;13.00;99.90;;;;;;5114350;27;20490;-90
2023/05/09 02:38:05;;;;;;;7.97;4.53;;;13.00;99.90;;;;;;5130152;27;20033;-92
2023/05/09 02:40:31;;;;;;;7.63;4.30;;;13.00;99.90;;;;;;5133334;27;20027;-79
2023/05/09 02:42:57;;;;;;;8.50;4.88;;;13.00;99.90;;;;;;5121715;27;20038;-76
2023/05/09 02:45:22;;;;;;;7.45;4.82;;;13.10;99.90;;;;;;5118157;27;20031;-76
2023/05/09 02:47:48;;;;;;;11.43;5.05;;;13.10;99.90;;;;;;5106615;27;20027;-76
2023/05/09 02:50:14;;;;;;;6.75;4.47;;;13.10;99.90;;;;;;5130956;27;20062;-76
2023/05/09 02:52:39;;;;;;;7.93;4.78;;;13.10;99.90;;;;;;5143993;27;20026;-76
2023/05/09 02:55:06;;;;;;;7.13;4.75;;;13.10;99.90;;;;;;5120801;27;20031;-88
2023/05/09 02:57:32;;;;;;;5.97;5.10;;;13.20;99.90;;;;;;5128002;27;20030;-91
2023/05/09 02:59:58;;;;;;;6.50;4.53;;;13.20;99.90;;;;;;5115130;28;20024;-91
2023/05/09 03:02:23;;;;;;;10.63;4.80;;;13.20;99.90;;;;;;5108332;28;20043;-76
2023/05/09 03:04:49;;;;;;;8.38;5.05;;;13.20;99.90;;;;;;5117739;22;20100;-72
2023/05/09 03:07:15;;;;;;;6.75;4.65;;;13.30;99.90;;;;;;5093318;27;20091;-72
2023/05/09 03:09:40;;;;;;;9.93;4.90;;;13.30;99.90;;;;;;5103842;27;20084;-72
2023/05/09 03:12:06;;;;;;;6.18;4.43;;;13.30;99.90;;;;;;5087461;28;20036;-72
2023/05/09 03:14:32;;;;;;;10.02;4.88;;;13.30;99.90;;;;;;5098300;28;20076;-72
2023/05/09 03:16:57;;;;;;;10.55;6.20;;;13.30;99.90;;;;;;5099622;28;20409;-72
2023/05/09 03:19:23;;;;;;;13.05;7.03;;;13.20;99.90;;;;;;5081693;27;20034;-72
2023/05/09 03:21:48;;;;;;;12.02;6.68;;;13.30;99.90;;;;;;5086818;28;20114;-73
2023/05/09 03:24:14;;;;;;;13.00;9.25;;;13.20;99.90;;;;;;5112457;27;20099;-72
2023/05/09 03:26:40;;;;;;;11.40;7.72;;;13.30;99.90;;;;;;5094475;28;20359;-72
2023/05/09 03:29:05;;;;;;;14.00;9.25;;;13.30;99.90;;;;;;5079328;28;20048;-72
2023/05/09 03:31:31;;;;;;;13.93;10.30;;;13.30;99.90;;;;;;5079315;28;20489;-72
2023/05/09 03:33:57;;;;;;;15.82;9.82;;;13.30;99.90;;;;;;5060925;28;20038;-72
2023/05/09 03:36:24;;;;;;;16.00;10.60;;;13.40;99.90;;;;;;5079876;28;20032;-72
2023/05/09 03:38:49;;;;;;;17.67;10.88;;;13.40;99.90;;;;;;5100422;28;20024;-71
2023/05/09 03:41:16;;;;;;;20.77;11.75;;;13.40;99.90;;;;;;5097879;27;20100;-72
2023/05/09 03:43:42;;;;;;;19.35;11.95;;;13.30;99.90;;;;;;5119060;27;20034;-72
2023/05/09 03:46:08;;;;;;;17.35;11.07;;;13.30;99.90;;;;;;5098880;28;20031;-72
2023/05/09 03:48:33;;;;;;;20.38;12.13;;;13.40;99.90;;;;;;5098257;28;20122;-72
2023/05/09 03:50:59;;;;;;;18.52;11.57;;;13.40;99.90;;;;;;5090895;28;20061;-72
2023/05/09 03:53:25;;;;;;;17.17;11.55;;;13.40;99.90;;;;;;5078203;28;20449;-72
2023/05/09 03:55:50;;;;;;;16.20;10.50;;;13.40;99.90;;;;;;5090946;28;20032;-72
2023/05/09 03:58:18;;;;;;;13.73;9.73;;;13.40;99.90;;;;;;5080309;28;20107;-72
2023/05/09 04:00:44;;;;;;;13.07;8.55;;;13.40;99.90;;;;;;5056371;28;20100;-72
2023/05/09 04:03:10;;;;;;;15.38;8.70;;;13.40;99.90;;;;;;5075891;28;20028;-72
2023/05/09 04:05:35;;;;;;;10.65;8.00;;;13.40;99.90;;;;;;5057103;28;21068;-72
2023/05/09 04:08:03;;;;;;;10.95;7.68;;;13.40;99.90;;;;;;5075649;28;20430;-72
2023/05/09 04:10:29;;;;;;;10.88;8.18;;;13.40;99.90;;;;;;5078957;28;20113;-72
2023/05/09 04:12:55;;;;;;;12.48;7.43;;;13.40;99.90;;;;;;5097268;28;20039;-72
2023/05/09 04:15:21;;;;;;;10.40;7.80;;;13.30;99.90;;;;;;5094240;28;20016;-72
2023/05/09 04:17:46;;;;;;;9.82;7.38;;;13.20;99.90;;;;;;5075633;28;20032;-72
2023/05/09 04:20:12;;;;;;;10.35;7.65;;;13.10;99.90;;;;;;5084987;28;20112;-72
2023/05/09 04:22:38;;;;;;;11.30;7.85;;;13.10;99.90;;;;;;5095745;28;20261;-72
2023/05/09 04:25:04;;;;;;;11.10;7.28;;;13.00;99.90;;;;;;5076437;28;20035;-72
2023/05/09 04:27:30;;;;;;;10.73;7.53;;;12.90;99.90;;;;;;5086787;28;20028;-72
2023/05/09 04:29:55;;;;;;;9.48;7.55;;;12.90;99.90;;;;;;5089536;28;20472;-72
2023/05/09 04:32:22;;;;;;;10.88;8.25;;;12.80;99.90;;;;;;5095961;28;20032;-71
2023/05/09 04:34:48;;;;;;;13.77;9.50;;;12.80;99.90;;;;;;5098154;28;20038;-72
2023/05/09 04:37:13;;;;;;;17.17;10.90;;;12.80;99.90;;;;;;5094609;28;20032;-72
2023/05/09 04:39:39;;;;;;;17.77;12.00;;;12.80;99.90;;;;;;5094141;28;20028;-72
2023/05/09 04:42:05;;;;;;;17.58;12.07;;;12.80;99.90;;;;;;5091058;28;20099;-71
2023/05/09 04:44:32;;;;;;;19.08;13.13;;;12.80;99.90;;;;;;5073456;28;20161;-72
2023/05/09 04:46:57;;;;;;;21.38;14.82;;;12.80;99.90;;;;;;5101757;28;20023;-72
2023/05/09 04:49:23;;;;;;;23.05;14.60;;;12.90;99.90;;;;;;5108843;28;20062;-72
2023/05/09 04:51:50;;;;;;;23.02;15.18;;;12.90;99.90;;;;;;5088567;28;20036;-72
2023/05/09 04:54:16;;;;;;;21.58;14.63;;;13.00;99.90;;;;;;5078436;28;20450;-72
2023/05/09 04:56:41;;;;;;;22.80;15.07;;;13.00;99.90;;;;;;5097877;28;20092;-72
2023/05/09 04:59:07;;;;;;;23.20;14.82;;;13.00;99.90;;;;;;5106486;28;20031;-72
2023/05/09 05:01:32;;;;;;;20.42;14.15;;;13.10;99.90;;;;;;5116370;28;20058;-72
2023/05/09 05:03:58;;;;;;;18.85;13.32;;;13.10;99.90;;;;;;5100346;28;20036;-72
2023/05/09 05:06:23;;;;;;;21.23;13.43;;;13.20;99.90;;;;;;5079747;28;20077;-72
2023/05/09 05:08:49;;;;;;;18.80;12.05;;;13.20;99.90;;;;;;5099067;28;20497;-72
2023/05/09 05:11:16;;;;;;;21.40;12.35;;;13.30;99.90;;;;;;5101616;28;20336;-72
2023/05/09 05:13:43;;;;;;;18.10;11.50;;;13.30;99.90;;;;;;5101460;27;20020;-72
2023/05/09 05:16:08;;;;;;;17.25;10.48;;;13.50;99.90;;;;;;5093705;27;20023;-72
2023/05/09 05:18:34;;;;;;;15.55;10.65;;;13.60;99.90;;;;;;5060139;28;20035;-72
2023/05/09 05:21:00;;;;;;;15.18;9.45;;;13.60;99.90;;;;;;5096261;28;20183;-72
2023/05/09 05:23:26;;;;;;;14.30;8.95;;;13.60;99.90;;;;;;5106540;27;20039;-72
2023/05/09 05:25:51;;;;;;;15.30;9.38;;;13.70;99.90;;;;;;5098569;28;20073;-72
2023/05/09 05:28:17;;;;;;;17.63;11.27;;;13.70;99.90;;;;;;5100980;27;20027;-72
2023/05/09 05:30:42;;;;;;;14.40;10.98;;;13.70;99.90;;;;;;5121347;27;20047;-73
2023/05/09 05:33:08;;;;;;;18.88;11.60;;;13.80;99.90;;;;;;5119604;27;20041;-73
2023/05/09 05:35:34;;;;;;;18.55;11.75;;;13.80;99.90;;;;;;5083775;28;20111;-72
2023/05/09 05:38:00;;;;;;;17.63;10.25;;;13.90;99.90;;;;;;5101476;27;20799;-72
2023/05/09 05:40:25;;;;;;;14.77;10.13;;;13.90;99.90;;;;;;5087730;28;20032;-71
2023/05/09 05:42:51;;;;;;;11.98;9.32;;;13.90;99.90;;;;;;5088248;27;20368;-72
2023/05/09 05:45:17;;;;;;;12.25;8.32;;;14.00;99.90;;;;;;5089617;28;20506;-73
2023/05/09 05:47:42;;;;;;;8.50;5.50;;;14.10;99.90;;;;;;5082682;28;20019;-72
2023/05/09 05:50:10;;;;;;;6.50;5.35;;;14.20;99.90;;;;;;5099834;28;20065;-72
2023/05/09 05:52:37;;;;;;;7.28;5.10;;;14.30;99.90;;;;;;5103573;28;20030;-72
2023/05/09 05:55:03;;;;;;;10.32;5.43;;;14.30;99.90;;;;;;5097119;27;20059;-72
2023/05/09 05:57:29;;;;;;;5.72;4.63;;;14.40;99.90;;;;;;5111389;27;20688;-72
2023/05/09 05:59:55;;;;;;;8.68;4.85;;;14.40;99.90;;;;;;5119500;27;20027;-72
2023/05/09 06:02:20;;;;;;;5.57;4.63;;;14.50;99.90;;;;;;5119462;27;20033;-72
2023/05/09 06:04:46;;;;;;;5.05;4.13;;;14.50;99.90;;;;;;5106316;27;20050;-72
2023/05/09 06:07:12;;;;;;;195.80;120.15;;;14.60;99.90;;;;;;5077587;28;20059;-72
2023/05/09 06:09:38;;;;;;;97.65;56.30;;;14.70;99.90;;;;;;5081253;28;20023;-72
2023/05/09 06:12:05;;;;;;;9.65;6.30;;;14.70;99.90;;;;;;5087763;28;20517;-72
2023/05/09 06:14:30;;;;;;;8.88;6.47;;;14.80;99.90;;;;;;5089842;28;20035;-72
2023/05/09 06:16:57;;;;;;;8.68;6.88;;;14.70;99.90;;;;;;5088692;27;20402;-72
2023/05/09 06:19:23;;;;;;;11.35;7.50;;;14.80;99.90;;;;;;5092631;28;20124;-72
2023/05/09 06:21:48;;;;;;;12.02;7.88;;;14.90;99.90;;;;;;5103311;27;20069;-72
2023/05/09 06:24:14;;;;;;;9.25;7.30;;;15.00;99.90;;;;;;5095682;27;20426;-72
2023/05/09 06:26:40;;;;;;;82.15;53.45;;;15.10;99.90;;;;;;5084707;27;20027;-72
2023/05/09 06:29:06;;;;;;;16.45;11.65;;;15.20;99.90;;;;;;5101012;27;20027;-72
2023/05/09 06:31:34;;;;;;;9.93;6.78;;;15.30;99.90;;;;;;5116293;27;20090;-72
2023/05/09 06:34:00;;;;;;;7.68;5.60;;;15.40;99.90;;;;;;5090567;28;20117;-72
2023/05/09 06:36:25;;;;;;;5.80;4.50;;;15.50;99.90;;;;;;5097888;28;20027;-72
2023/05/09 06:38:51;;;;;;;4.72;4.20;;;15.50;99.90;;;;;;5118584;27;20030;-73
2023/05/09 06:41:17;;;;;;;7.63;6.90;;;15.60;99.90;;;;;;5104686;27;20507;-71
2023/05/09 06:43:42;;;;;;;5.28;4.32;;;15.70;99.90;;;;;;5100678;28;20031;-72
2023/05/09 06:46:08;;;;;;;4.90;4.10;;;15.70;99.90;;;;;;5095843;27;20035;-72
2023/05/09 06:48:33;;;;;;;5.10;4.00;;;15.80;99.90;;;;;;5103576;27;20023;-72
2023/05/09 06:50:59;;;;;;;4.60;4.10;;;15.70;99.90;;;;;;5096684;28;20131;-72
2023/05/09 06:53:25;;;;;;;4.13;3.72;;;15.80;99.90;;;;;;5110167;27;20089;-72
2023/05/09 06:55:50;;;;;;;6.38;3.80;;;15.90;99.90;;;;;;5095315;28;20514;-71
2023/05/09 06:58:16;;;;;;;4.60;3.97;;;16.00;99.90;;;;;;5077217;27;20023;-72
2023/05/09 07:00:42;;;;;;;4.55;3.78;;;16.10;99.90;;;;;;5083960;28;20039;-71
2023/05/09 07:03:08;;;;;;;5.60;4.20;;;16.00;99.90;;;;;;5080432;27;20872;-72
2023/05/09 07:05:33;;;;;;;5.30;3.55;;;16.10;99.90;;;;;;5079373;28;20469;-71
2023/05/09 07:07:59;;;;;;;5.13;3.33;;;16.20;99.90;;;;;;5082455;28;20660;-71
2023/05/09 07:10:25;;;;;;;4.95;3.28;;;16.10;99.90;;;;;;5085887;28;20100;-71
2023/05/09 07:12:51;;;;;;;8.93;3.78;;;16.20;99.90;;;;;;5083187;28;20032;-71
2023/05/09 07:15:16;;;;;;;6.05;3.65;;;16.20;99.90;;;;;;5096901;27;20601;-71
2023/05/09 07:17:42;;;;;;;6.97;3.80;;;16.40;99.90;;;;;;5081456;28;20038;-71
2023/05/09 07:20:08;;;;;;;5.30;3.72;;;16.50;99.90;;;;;;5099084;28;20023;-71
2023/05/09 07:22:34;;;;;;;8.20;3.60;;;16.60;99.90;;;;;;5095903;28;20097;-72
2023/05/09 07:24:59;;;;;;;6.35;3.30;;;16.60;99.90;;;;;;5079894;28;20055;-71
2023/05/09 07:27:25;;;;;;;3.40;3.10;;;16.70;99.90;;;;;;5083995;27;21393;-71
2023/05/09 07:29:51;;;;;;;4.85;3.30;;;16.70;99.90;;;;;;5096821;28;20034;-72
2023/05/09 07:32:20;;;;;;;5.13;2.75;;;16.70;99.90;;;;;;5078363;27;20281;-71
2023/05/09 07:34:46;;;;;;;5.03;3.42;;;16.80;99.90;;;;;;5094497;28;20387;-71
2023/05/09 07:37:12;;;;;;;3.45;2.50;;;17.00;99.90;;;;;;5094761;27;20127;-72
2023/05/09 07:39:38;;;;;;;3.53;2.67;;;17.10;99.90;;;;;;5096061;28;20646;-72
2023/05/09 07:42:04;;;;;;;4.03;2.60;;;17.20;99.90;;;;;;5094604;28;20106;-72
2023/05/09 07:44:30;;;;;;;4.03;2.63;;;17.40;99.90;;;;;;5085171;28;20174;-71
2023/05/09 07:46:58;;;;;;;4.32;2.30;;;17.50;99.90;;;;;;5072296;28;20023;-72
2023/05/09 07:49:24;;;;;;;3.42;2.45;;;17.60;99.90;;;;;;5096354;27;20031;-72
2023/05/09 07:51:49;;;;;;;3.03;2.50;;;17.70;99.90;;;;;;5103038;27;20039;-72
2023/05/09 07:54:15;;;;;;;3.13;2.42;;;17.80;99.90;;;;;;5089981;28;20157;-72
2023/05/09 07:56:41;;;;;;;3.33;2.33;;;17.60;99.90;;;;;;5084581;28;20059;-72
2023/05/09 07:59:06;;;;;;;4.30;2.40;;;17.70;99.90;;;;;;5063381;28;20038;-71
2023/05/09 08:01:32;;;;;;;2.55;2.35;;;17.90;99.90;;;;;;5085247;28;20035;-72
2023/05/09 08:03:58;;;;;;;3.08;2.30;;;18.00;99.90;;;;;;5085712;28;20036;-72
2023/05/09 08:06:23;;;;;;;2.55;2.17;;;18.40;99.90;;;;;;5086180;28;20127;-71
2023/05/09 08:08:49;;;;;;;2.40;1.80;;;19.00;99.90;;;;;;5091329;28;20035;-72
2023/05/09 08:11:14;;;;;;;3.42;1.75;;;20.10;99.90;;;;;;5100048;27;20545;-73
2023/05/09 08:13:40;;;;;;;4.05;1.52;;;21.20;99.90;;;;;;5084699;28;20119;-72
2023/05/09 08:16:06;;;;;;;3.78;1.20;;;22.30;96.10;;;;;;5075981;28;20032;-69
2023/05/09 08:18:31;;;;;;;2.05;1.30;;;23.50;90.30;;;;;;5079256;28;20125;-72
2023/05/09 08:20:58;;;;;;;2.00;1.45;;;24.20;75.10;;;;;;5060305;28;22105;-71
2023/05/09 08:23:25;;;;;;;1.88;1.55;;;24.10;73.70;;;;;;4726749;27;9999882;-72
2023/05/09 08:25:54;;;;;;;4.30;1.98;;;24.00;70.20;;;;;;5077414;28;20103;-72
2023/05/09 08:28:22;;;;;;;6.35;1.52;;;23.00;79.50;;;;;;5080557;28;20086;-72
2023/05/09 08:30:53;;;;;;;1.48;1.00;;;22.80;83.90;;;;;;5085726;28;20035;-72
2023/05/09 08:33:19;;;;;;;3.45;1.10;;;23.20;78.60;;;;;;5089686;28;20848;-72
2023/05/09 08:35:49;;;;;;;1.52;0.90;;;24.50;73.10;;;;;;5090843;28;20122;-71
2023/05/09 08:38:14;;;;;;;3.90;0.80;;;27.10;56.80;;;;;;5084476;28;20119;-72
2023/05/09 08:40:40;;;;;;;2.33;0.95;;;28.60;52.00;;;;;;5094697;28;20126;-72
2023/05/09 08:43:06;;;;;;;3.97;0.93;;;28.90;48.30;;;;;;5097534;28;20078;-72
2023/05/09 08:45:38;;;;;;;1.45;0.80;;;28.20;50.60;;;;;;5098799;27;20027;-71
2023/05/09 08:48:05;;;;;;;2.55;1.23;;;27.70;54.00;;;;;;5096935;28;20208;-71
2023/05/09 08:50:31;;;;;;;2.25;1.00;;;26.80;50.90;;;;;;5093745;27;20031;-72
2023/05/09 08:52:57;;;;;;;4.07;1.77;;;26.70;54.40;;;;;;5088617;28;20077;-71
2023/05/09 08:55:23;;;;;;;2.05;0.80;;;27.00;54.40;;;;;;5084565;28;20032;-72
2023/05/09 08:57:51;;;;;;;1.40;0.73;;;28.80;49.50;;;;;;5093154;28;20019;-71
2023/05/09 09:00:19;;;;;;;0.88;0.47;;;31.20;46.30;;;;;;5097243;28;20063;-71
2023/05/09 09:02:45;;;;;;;3.85;0.50;;;33.50;39.40;;;;;;5109446;27;20069;-71
2023/05/09 09:05:11;;;;;;;4.22;0.70;;;33.00;38.30;;;;;;5095609;28;20448;-71
2023/05/09 09:07:38;;;;;;;1.60;0.90;;;31.70;41.50;;;;;;5099357;28;20015;-71
2023/05/09 09:10:06;;;;;;;2.22;0.80;;;32.00;40.00;;;;;;5092321;28;20032;-71
2023/05/09 09:12:33;;;;;;;0.85;0.50;;;33.70;38.40;;;;;;5091154;28;20059;-72
2023/05/09 09:15:03;;;;;;;1.33;0.57;;;35.50;36.00;;;;;;5101286;27;20035;-71
2023/05/09 09:17:31;;;;;;;0.82;0.40;;;36.40;34.30;;;;;;5101573;28;20084;-71
2023/05/09 09:20:03;;;;;;;2.80;0.57;;;36.90;33.40;;;;;;5102939;27;20031;-71
2023/05/09 09:22:32;;;;;;;1.90;0.50;;;37.00;34.00;;;;;;5090869;27;20039;-72
2023/05/09 09:25:02;;;;;;;2.05;0.60;;;37.20;32.70;;;;;;5093867;28;20275;-71
2023/05/09 09:27:28;;;;;;;3.28;0.30;;;36.00;33.40;;;;;;5067371;28;20074;-72
2023/05/09 09:29:54;;;;;;;3.22;0.75;;;33.70;35.60;;;;;;5093367;28;20032;-71
2023/05/09 09:32:21;;;;;;;2.80;0.80;;;32.50;39.30;;;;;;5096634;28;20024;-72
2023/05/09 09:34:50;;;;;;;1.92;0.63;;;33.20;38.40;;;;;;5077704;28;20529;-71
2023/05/09 09:37:22;;;;;;;4.40;0.73;;;33.50;36.90;;;;;;5098055;27;20106;-72
2023/05/09 09:39:55;;;;;;;0.73;0.60;;;33.40;36.20;;;;;;5088735;27;20043;-71
2023/05/09 09:42:22;;;;;;;1.10;0.40;;;32.40;36.60;;;;;;5074947;28;20039;-72
2023/05/09 09:45:08;;;;;;;1.27;0.70;;;31.80;37.30;;;;;;5098056;28;20027;-72
2023/05/09 09:47:33;;;;;;;2.35;0.70;;;30.70;39.90;;;;;;5104711;27;20408;-72
2023/05/09 09:50:14;;;;;;;1.85;0.70;;;29.40;42.40;;;;;;5101081;27;20028;-71
2023/05/09 09:52:54;;;;;;;1.88;0.50;;;28.10;45.50;;;;;;5089277;28;20054;-72
2023/05/09 09:55:22;;;;;;;2.03;0.60;;;27.00;47.50;;;;;;5097790;27;20451;-71
2023/05/09 09:57:49;;;;;;;3.35;0.70;;;26.00;50.20;;;;;;5092896;28;20490;-72
2023/05/09 10:00:16;;;;;;;1.27;0.60;;;25.20;53.10;;;;;;5092828;27;20068;-72
2023/05/09 10:02:50;;;;;;;1.30;0.55;;;24.30;58.00;;;;;;5093283;28;20055;-71
2023/05/09 10:05:20;;;;;;;0.82;0.47;;;23.50;64.00;;;;;;5097325;28;20527;-72
2023/05/09 10:07:50;;;;;;;1.38;0.60;;;22.90;72.80;;;;;;5094081;28;20056;-72
2023/05/09 10:10:16;;;;;;;1.23;0.88;;;22.60;83.80;;;;;;5098079;27;20039;-72
2023/05/09 10:12:43;;;;;;;1.15;0.80;;;22.40;88.90;;;;;;5111287;27;20040;-72
2023/05/09 10:15:11;;;;;;;2.80;1.20;;;22.50;85.50;;;;;;5088247;27;20571;-71
2023/05/09 10:17:36;;;;;;;3.13;1.08;;;22.50;88.50;;;;;;5088186;28;20058;-71
2023/05/09 10:20:04;;;;;;;1.52;0.80;;;22.70;81.30;;;;;;5069373;28;20047;-71
2023/05/09 10:22:33;;;;;;;2.72;0.80;;;23.10;83.20;;;;;;5083954;28;20454;-71
2023/05/09 10:25:05;;;;;;;0.82;0.40;;;23.70;81.70;;;;;;5087677;28;20075;-72
2023/05/09 10:27:34;;;;;;;2.17;0.60;;;23.90;64.60;;;;;;5089723;27;20035;-71
2023/05/09 10:30:07;;;;;;;2.50;0.80;;;24.10;69.70;;;;;;5095907;28;20024;-72
2023/05/09 10:32:52;;;;;;;0.73;0.50;;;24.10;64.30;;;;;;4745352;28;10000312;-72
2023/05/09 10:35:21;;;;;;;1.13;0.60;;;23.80;66.40;;;;;;5076518;28;20044;-71
2023/05/09 10:37:47;;;;;;;3.17;0.60;;;23.30;78.50;;;;;;5080481;28;20491;-71
2023/05/09 10:40:14;;;;;;;2.53;0.70;;;22.70;76.70;;;;;;5059513;28;20023;-69
2023/05/09 10:42:44;;;;;;;1.00;0.52;;;22.50;83.40;;;;;;5075810;28;20439;-71
2023/05/09 10:45:11;;;;;;;1.90;0.70;;;22.40;82.10;;;;;;5099814;28;20063;-71
2023/05/09 10:47:39;;;;;;;2.28;0.77;;;22.50;82.50;;;;;;5081479;28;20024;-71
2023/05/09 10:50:08;;;;;;;4.30;0.80;;;22.80;86.40;;;;;;5087266;28;20532;-71
2023/05/09 10:52:54;;;;;;;4.40;1.02;;;23.20;73.10;;;;;;5080179;28;20036;-71
2023/05/09 10:55:20;;;;;;;3.13;1.83;;;23.70;78.70;;;;;;5077227;28;20539;-71
2023/05/09 10:57:52;;;;;;;8.23;2.75;;;23.60;65.20;;;;;;5076832;28;20066;-71
2023/05/09 11:00:23;;;;;;;4.90;3.53;;;23.10;75.50;;;;;;5095632;28;20024;-71
2023/05/09 11:03:09;;;;;;;5.90;4.05;;;22.30;80.80;;;;;;5079023;28;20035;-71
2023/05/09 11:05:39;;;;;;;6.15;4.50;;;21.60;89.20;;;;;;5074917;28;20214;-71
2023/05/09 11:08:18;;;;;;;5.18;4.38;;;21.10;93.40;;;;;;5085440;28;20381;-71
2023/05/09 11:10:44;;;;;;;5.75;4.22;;;20.60;95.80;;;;;;5095924;28;20091;-71
2023/05/09 11:13:09;;;;;;;4.40;3.38;;;20.30;98.50;;;;;;5096068;28;20140;-71
2023/05/09 11:15:48;;;;;;;5.40;3.80;;;19.80;99.00;;;;;;5098297;28;20447;-71
2023/05/09 11:18:14;;;;;;;6.18;4.20;;;19.40;99.70;;;;;;5098914;28;20023;-71
2023/05/09 11:20:45;;;;;;;5.20;3.65;;;19.10;99.90;;;;;;5098382;28;20046;-71
2023/05/09 11:23:10;;;;;;;5.43;3.55;;;19.00;99.90;;;;;;5098953;28;20481;-71
2023/05/09 11:25:38;;;;;;;6.18;3.47;;;18.90;99.90;;;;;;5092188;28;20063;-71
2023/05/09 11:28:05;;;;;;;8.38;4.32;;;18.90;99.90;;;;;;5066972;28;20031;-71
2023/05/09 11:30:43;;;;;;;5.97;3.85;;;19.10;99.90;;;;;;5098360;28;20482;-71
2023/05/09 11:33:29;;;;;;;4.57;3.90;;;19.30;99.90;;;;;;5099338;28;20039;-71
2023/05/09 11:36:28;;;;;;;4.65;2.75;;;19.80;99.90;;;;;;5098270;28;20103;-71
2023/05/09 11:39:08;;;;;;;5.20;2.20;;;20.50;99.90;;;;;;5064403;28;20514;-71
2023/05/09 11:41:46;;;;;;;3.00;1.60;;;21.10;98.30;;;;;;5096531;28;20534;-71
2023/05/09 11:44:17;;;;;;;3.65;2.75;;;21.60;96.00;;;;;;5095838;28;20046;-71
2023/05/09 11:46:43;;;;;;;3.95;2.85;;;22.20;91.00;;;;;;5095748;28;20031;-71
2023/05/09 11:49:09;;;;;;;3.72;2.50;;;22.80;91.20;;;;;;5080440;28;20467;-71
2023/05/09 11:51:38;;;;;;;2.22;1.80;;;23.10;81.60;;;;;;5091600;28;20032;-71
2023/05/09 11:54:09;;;;;;;3.15;1.25;;;23.10;77.60;;;;;;5098156;28;20516;-71
2023/05/09 11:56:36;;;;;;;2.75;1.40;;;23.20;83.10;;;;;;5077449;28;20104;-71
2023/05/09 11:59:02;;;;;;;2.80;1.60;;;23.50;85.20;;;;;;5096933;28;20051;-71
2023/05/09 12:01:28;;;;;;;4.72;2.22;;;23.60;80.30;;;;;;5098101;28;20533;-71
2023/05/09 12:03:54;;;;;;;2.13;1.92;;;23.20;79.20;;;;;;5058243;28;20939;-71
2023/05/09 12:06:20;;;;;;;3.30;2.10;;;22.80;82.70;;;;;;5077764;28;20478;-71
2023/05/09 12:08:46;;;;;;;3.70;2.05;;;22.40;80.90;;;;;;5096914;28;20020;-71
2023/05/09 12:11:13;;;;;;;4.35;2.35;;;22.00;90.00;;;;;;5098387;28;20374;-71
2023/05/09 12:13:47;;;;;;;3.78;2.10;;;21.60;92.10;;;;;;5098733;28;20034;-71
2023/05/09 12:16:13;;;;;;;4.13;2.47;;;21.40;96.10;;;;;;5076130;28;20028;-71
2023/05/09 12:18:43;;;;;;;3.97;2.20;;;21.40;94.30;;;;;;5078714;28;20542;-71
2023/05/09 12:21:10;;;;;;;5.63;2.17;;;21.50;95.20;;;;;;5078274;28;20529;-71
2023/05/09 12:23:35;;;;;;;3.60;2.13;;;21.70;94.10;;;;;;5082196;28;20082;-71
2023/05/09 12:26:01;;;;;;;3.53;2.55;;;22.00;92.70;;;;;;5094733;28;20053;-71
2023/05/09 12:28:27;;;;;;;4.45;2.38;;;22.30;91.10;;;;;;5076594;28;20035;-71
2023/05/09 12:30:53;;;;;;;6.10;3.03;;;22.60;90.50;;;;;;5077690;28;20400;-71
2023/05/09 12:33:21;;;;;;;6.72;2.67;;;22.50;81.30;;;;;;5085891;28;20436;-71
2023/05/09 12:35:59;;;;;;;6.00;2.78;;;22.50;90.30;;;;;;5099511;27;20545;-71
2023/05/09 12:38:25;;;;;;;3.20;2.63;;;22.50;91.40;;;;;;5091585;28;20024;-71
2023/05/09 12:41:01;;;;;;;2.90;2.42;;;22.40;89.70;;;;;;5094134;28;20038;-71
2023/05/09 12:43:32;;;;;;;7.57;4.20;;;22.20;91.70;;;;;;5094763;28;20130;-71
2023/05/09 12:45:59;;;;;;;7.32;4.38;;;21.70;87.80;;;;;;5096424;28;20115;-71